createdAt,value
2019-04-06T00:00:44.776Z,54.87
2019-04-06T00:03:13.144Z,54.79
2019-04-06T00:05:41.578Z,54.59
2019-04-06T00:08:09.957Z,54.80
2019-04-06T00:10:38.322Z,54.87
2019-04-06T00:13:06.704Z,54.38
2019-04-06T00:15:35.073Z,54.73
2019-04-06T00:18:03.464Z,54.81
2019-04-06T00:20:31.831Z,54.80
2019-04-06T00:23:00.275Z,54.84
2019-04-06T00:25:28.634Z,54.81
2019-04-06T00:27:58.070Z,54.74
2019-04-06T00:30:26.915Z,54.81
2019-04-06T00:32:59.867Z,54.71
2019-04-06T00:35:28.237Z,54.70
2019-04-06T00:37:56.625Z,54.70
2019-04-06T00:40:24.999Z,54.81
2019-04-06T00:42:54.274Z,54.82
2019-04-06T00:45:22.639Z,54.65
2019-04-06T00:47:51.030Z,54.59
2019-04-06T00:50:19.394Z,54.75
2019-04-06T00:52:47.759Z,54.58
2019-04-06T00:55:16.127Z,54.72
2019-04-06T00:57:44.503Z,54.69
2019-04-06T01:00:13.238Z,54.81
2019-04-06T01:02:41.616Z,54.73
2019-04-06T01:05:10.334Z,54.67
2019-04-06T01:07:38.698Z,54.69
2019-04-06T01:10:07.719Z,54.78
2019-04-06T01:12:36.083Z,54.66
2019-04-06T01:15:05.995Z,54.77
2019-04-06T01:17:35.354Z,54.64
2019-04-06T01:20:04.078Z,54.66
2019-04-06T01:22:32.434Z,54.65
2019-04-06T01:25:00.817Z,54.67
2019-04-06T01:27:29.191Z,54.69
2019-04-06T01:29:57.557Z,54.62
2019-04-06T01:32:25.953Z,54.61
2019-04-06T01:34:54.314Z,54.65
2019-04-06T01:37:23.651Z,54.61
2019-04-06T01:39:52.067Z,54.60
2019-04-06T01:42:20.443Z,54.61
2019-04-06T01:44:49.799Z,54.53
2019-04-06T01:47:18.165Z,54.61
2019-04-06T01:49:47.483Z,54.51
2019-04-06T01:52:15.878Z,54.69
2019-04-06T01:54:44.278Z,54.56
2019-04-06T01:57:12.668Z,54.67
2019-04-06T01:59:42.002Z,54.62
2019-04-06T02:02:12.924Z,54.66
2019-04-06T02:04:41.295Z,54.65
2019-04-06T02:07:09.670Z,54.53
2019-04-06T02:09:38.044Z,54.61
2019-04-06T02:12:06.507Z,54.52
2019-04-06T02:14:34.888Z,54.52
2019-04-06T02:17:03.247Z,54.59
2019-04-06T02:19:31.611Z,54.54
2019-04-06T02:21:59.994Z,54.54
2019-04-06T02:24:28.356Z,54.65
2019-04-06T02:26:56.742Z,54.47
2019-04-06T02:29:25.126Z,54.60
2019-04-06T02:31:57.871Z,54.54
2019-04-06T02:34:45.203Z,54.39
2019-04-06T02:37:15.300Z,54.53
2019-04-06T02:39:49.240Z,54.31
2019-04-06T02:42:19.531Z,54.56
2019-04-06T02:44:47.902Z,54.50
2019-04-06T02:47:16.321Z,54.49
2019-04-06T02:49:44.654Z,54.50
2019-04-06T02:52:13.057Z,54.57
2019-04-06T02:54:41.424Z,54.54
2019-04-06T02:57:11.842Z,54.55
2019-04-06T02:59:40.274Z,54.50
2019-04-06T03:02:08.606Z,54.44
2019-04-06T03:04:36.978Z,54.54
2019-04-06T03:07:05.376Z,54.45
2019-04-06T03:09:33.766Z,54.46
2019-04-06T03:12:02.183Z,54.40
2019-04-06T03:14:30.538Z,54.50
2019-04-06T03:16:58.946Z,54.38
2019-04-06T03:19:27.325Z,54.41
2019-04-06T03:21:55.733Z,54.59
2019-04-06T03:24:24.120Z,54.60
2019-04-06T03:27:00.915Z,54.83
2019-04-06T03:29:22.615Z,54.95
2019-04-06T03:31:51.082Z,55.31
2019-04-06T03:34:21.068Z,55.30
2019-04-06T03:36:49.556Z,55.32
2019-04-06T03:39:17.904Z,55.33
2019-04-06T03:41:46.329Z,55.37
2019-04-06T03:44:14.715Z,55.41
2019-04-06T03:46:43.125Z,55.23
2019-04-06T03:49:11.683Z,55.38
2019-04-06T03:51:42.080Z,55.47
2019-04-06T03:54:10.429Z,55.49
2019-04-06T03:56:38.803Z,55.51
2019-04-06T03:59:07.163Z,55.55
2019-04-06T04:01:36.528Z,55.42
2019-04-06T04:04:04.887Z,55.22
2019-04-06T04:06:33.282Z,55.22
2019-04-06T04:09:01.831Z,55.17
2019-04-06T04:11:30.379Z,55.26
2019-04-06T04:14:00.761Z,55.09
2019-04-06T04:16:29.154Z,55.00
2019-04-06T04:18:57.519Z,55.06
2019-04-06T04:21:25.969Z,55.11
2019-04-06T04:23:54.348Z,55.12
2019-04-06T04:26:22.719Z,55.20
2019-04-06T04:28:51.131Z,55.14
2019-04-06T04:31:19.529Z,55.14
2019-04-06T04:33:47.979Z,55.15
2019-04-06T04:36:16.302Z,55.13
2019-04-06T04:38:44.928Z,55.09
2019-04-06T04:41:13.316Z,55.17
2019-04-06T04:43:41.706Z,55.15
2019-04-06T04:46:10.114Z,55.20
2019-04-06T04:48:38.655Z,55.25
2019-04-06T04:51:07.254Z,55.21
2019-04-06T04:53:36.515Z,55.14
2019-04-06T04:56:04.895Z,55.11
2019-04-06T04:58:33.440Z,54.99
2019-04-06T05:01:01.743Z,54.95
2019-04-06T05:03:30.115Z,54.94
2019-04-06T05:05:58.479Z,54.88
2019-04-06T05:08:27.211Z,54.89
2019-04-06T05:10:55.503Z,54.81
2019-04-06T05:13:23.882Z,54.66
2019-04-06T05:16:11.098Z,54.79
2019-04-06T05:18:41.384Z,54.74
2019-04-06T05:21:10.508Z,54.75
2019-04-06T05:23:39.052Z,54.60
2019-04-06T05:26:07.490Z,54.67
2019-04-06T05:28:35.833Z,54.52
2019-04-06T05:31:04.222Z,54.58
2019-04-06T05:33:32.630Z,54.50
2019-04-06T05:36:01.019Z,54.49
2019-04-06T05:38:29.411Z,54.45
2019-04-06T05:40:57.983Z,54.38
2019-04-06T05:43:26.359Z,54.41
2019-04-06T05:45:54.747Z,54.34
2019-04-06T05:48:23.189Z,54.36
2019-04-06T05:50:51.512Z,54.31
2019-04-06T05:53:20.151Z,54.35
2019-04-06T05:55:48.656Z,54.19
2019-04-06T05:58:17.188Z,54.13
2019-04-06T06:00:45.604Z,54.18
2019-04-06T06:03:15.427Z,54.04
2019-04-06T06:05:44.057Z,54.07
2019-04-06T06:08:12.420Z,54.02
2019-04-06T06:10:40.927Z,54.09
2019-04-06T06:13:09.261Z,54.07
2019-04-06T06:15:37.714Z,54.06
2019-04-06T06:18:06.073Z,54.55
2019-04-06T06:20:34.558Z,54.50
2019-04-06T06:23:02.938Z,54.60
2019-04-06T06:25:31.775Z,54.65
2019-04-06T06:28:00.399Z,54.61
2019-04-06T06:30:28.876Z,54.45
2019-04-06T06:32:57.273Z,54.47
2019-04-06T06:35:25.660Z,54.51
2019-04-06T06:37:54.025Z,54.37
2019-04-06T06:40:22.420Z,54.29
2019-04-06T06:42:50.787Z,54.24
2019-04-06T06:45:19.319Z,54.36
2019-04-06T06:47:47.725Z,53.92
2019-04-06T06:50:16.474Z,53.92
2019-04-06T06:52:44.830Z,53.78
2019-04-06T06:55:13.611Z,53.75
2019-04-06T06:57:41.949Z,53.72
2019-04-06T07:00:10.549Z,53.83
2019-04-06T07:02:40.903Z,53.54
2019-04-06T07:05:10.331Z,54.09
2019-04-06T07:07:38.707Z,53.75
2019-04-06T07:10:08.637Z,54.00
2019-04-06T07:12:37.008Z,53.63
2019-04-06T07:15:07.434Z,53.41
2019-04-06T07:17:35.798Z,53.41
2019-04-06T07:20:06.038Z,53.37
2019-04-06T07:22:34.402Z,53.41
2019-04-06T07:25:02.962Z,53.45
2019-04-06T07:27:31.427Z,53.42
2019-04-06T07:30:00.015Z,53.65
2019-04-06T07:32:28.522Z,53.54
2019-04-06T07:34:56.991Z,53.42
2019-04-06T07:37:25.590Z,53.72
2019-04-06T07:39:53.960Z,53.93
2019-04-06T07:42:22.361Z,53.57
2019-04-06T07:44:50.746Z,54.11
2019-04-06T07:47:19.256Z,54.18
2019-04-06T07:49:47.746Z,54.24
2019-04-06T07:52:19.668Z,54.10
2019-04-06T07:54:48.061Z,53.80
2019-04-06T07:57:16.460Z,53.53
2019-04-06T07:59:44.959Z,53.44
2019-04-06T08:02:13.347Z,53.45
2019-04-06T08:04:41.719Z,53.36
2019-04-06T08:07:10.129Z,53.34
2019-04-06T08:09:38.474Z,53.26
2019-04-06T08:12:06.883Z,53.06
2019-04-06T08:14:35.250Z,52.88
2019-04-06T08:17:03.673Z,52.71
2019-04-06T08:19:32.048Z,52.61
2019-04-06T08:22:00.465Z,52.49
2019-04-06T08:24:28.843Z,52.45
2019-04-06T08:26:57.240Z,52.39
2019-04-06T08:29:25.752Z,52.34
2019-04-06T08:31:55.165Z,52.21
2019-04-06T08:34:23.708Z,52.14
2019-04-06T08:36:52.052Z,52.06
2019-04-06T08:39:20.443Z,52.30
2019-04-06T08:41:48.876Z,52.26
2019-04-06T08:44:17.224Z,52.29
2019-04-06T08:46:45.626Z,52.15
2019-04-06T08:49:13.999Z,52.20
2019-04-06T08:51:42.413Z,52.21
2019-04-06T08:54:10.807Z,52.11
2019-04-06T08:56:39.201Z,52.05
2019-04-06T08:59:12.104Z,52.05
2019-04-06T09:01:37.665Z,51.98
2019-04-06T09:04:06.067Z,51.92
2019-04-06T09:06:34.429Z,51.70
2019-04-06T09:09:03.505Z,51.65
2019-04-06T09:11:31.886Z,51.53
2019-04-06T09:14:00.295Z,51.50
2019-04-06T09:16:28.670Z,51.38
2019-04-06T09:18:57.261Z,51.29
2019-04-06T09:21:25.710Z,51.28
2019-04-06T09:23:54.098Z,51.38
2019-04-06T09:26:22.476Z,51.42
2019-04-06T09:28:50.864Z,51.45
2019-04-06T09:31:19.227Z,51.16
2019-04-06T09:33:47.676Z,51.22
2019-04-06T09:36:16.724Z,51.16
2019-04-06T09:38:45.205Z,51.26
2019-04-06T09:41:13.775Z,51.78
2019-04-06T09:43:42.335Z,51.64
2019-04-06T09:46:15.650Z,51.49
2019-04-06T09:48:45.644Z,51.14
2019-04-06T09:51:31.838Z,51.26
2019-04-06T09:54:13.583Z,50.98
2019-04-06T09:57:00.691Z,51.04
2019-04-06T09:59:47.949Z,50.98
2019-04-06T10:02:20.428Z,50.59
2019-04-06T10:05:05.468Z,50.77
2019-04-06T10:07:35.523Z,50.86
2019-04-06T10:10:20.747Z,51.01
2019-04-06T10:12:53.687Z,50.88
2019-04-06T10:15:36.424Z,50.37
2019-04-06T10:18:23.005Z,50.49
2019-04-06T10:21:00.036Z,50.42
2019-04-06T10:23:32.568Z,48.17
2019-04-06T10:26:19.128Z,45.38
2019-04-06T10:28:51.917Z,43.55
2019-04-06T10:31:39.940Z,43.33
2019-04-06T10:34:28.288Z,45.65
2019-04-06T10:36:58.313Z,45.87
2019-04-06T10:39:30.975Z,46.20
2019-04-06T10:42:06.777Z,47.16
2019-04-06T10:44:53.093Z,47.95
2019-04-06T10:47:41.080Z,48.57
2019-04-06T10:50:17.040Z,48.68
2019-04-06T10:52:47.062Z,48.27
2019-04-06T10:55:17.291Z,48.44
2019-04-06T10:58:03.234Z,48.88
2019-04-06T11:00:33.262Z,47.72
2019-04-06T11:03:14.850Z,46.59
2019-04-06T11:05:44.869Z,43.28
2019-04-06T11:08:14.909Z,42.14
2019-04-06T11:10:53.805Z,41.21
2019-04-06T11:13:39.848Z,41.64
2019-04-06T11:16:12.836Z,41.31
2019-04-06T11:18:45.565Z,41.18
2019-04-06T11:21:24.654Z,40.85
2019-04-06T11:23:54.696Z,40.53
2019-04-06T11:26:24.719Z,40.82
2019-04-06T11:28:57.704Z,40.68
2019-04-06T11:31:44.209Z,41.12
2019-04-06T11:34:29.974Z,40.92
2019-04-06T11:37:17.704Z,42.04
2019-04-06T11:40:04.174Z,42.49
2019-04-06T11:42:46.224Z,42.83
2019-04-06T11:45:21.996Z,43.39
2019-04-06T11:47:58.024Z,43.88
2019-04-06T11:50:28.430Z,44.41
2019-04-06T11:53:07.620Z,45.05
2019-04-06T11:55:50.530Z,45.38
2019-04-06T11:58:23.577Z,45.61
2019-04-06T12:00:53.571Z,45.07
2019-04-06T12:03:23.682Z,45.33
2019-04-06T12:05:53.692Z,45.70
2019-04-06T12:08:39.593Z,45.92
2019-04-06T12:11:25.813Z,46.11
2019-04-06T12:13:59.727Z,46.46
2019-04-06T12:16:30.014Z,46.49
2019-04-06T12:19:16.594Z,46.46
2019-04-06T12:21:46.568Z,46.49
2019-04-06T12:24:16.809Z,46.72
2019-04-06T12:27:02.084Z,46.74
2019-04-06T12:29:32.114Z,46.81
2019-04-06T12:32:08.083Z,46.68
2019-04-06T12:34:55.382Z,46.84
2019-04-06T12:37:27.812Z,46.80
2019-04-06T12:40:09.691Z,46.79
2019-04-06T12:42:39.760Z,46.50
2019-04-06T12:45:18.433Z,46.59
2019-04-06T12:47:51.111Z,46.51
2019-04-06T12:50:36.465Z,46.97
2019-04-06T12:53:15.395Z,46.79
2019-04-06T12:55:45.404Z,47.14
2019-04-06T12:58:33.962Z,47.18
2019-04-06T13:01:20.376Z,47.25
2019-04-06T13:03:50.740Z,46.82
2019-04-06T13:06:26.434Z,47.00
2019-04-06T13:09:08.776Z,47.14
2019-04-06T13:11:44.545Z,47.22
2019-04-06T13:14:30.909Z,47.31
2019-04-06T13:17:00.958Z,47.37
2019-04-06T13:19:42.457Z,47.25
2019-04-06T13:22:18.212Z,47.10
2019-04-06T13:25:00.395Z,47.57
2019-04-06T13:27:49.367Z,47.66
2019-04-06T13:30:20.739Z,47.60
2019-04-06T13:32:57.700Z,47.77
2019-04-06T13:35:37.050Z,47.83
2019-04-06T13:38:10.424Z,47.56
2019-04-06T13:40:41.622Z,47.81
2019-04-06T13:43:17.490Z,47.89
2019-04-06T13:45:57.461Z,47.95
2019-04-06T13:48:44.997Z,47.75
2019-04-06T13:51:17.800Z,47.93
2019-04-06T13:54:04.405Z,47.85
2019-04-06T13:56:34.403Z,47.92
2019-04-06T13:59:19.246Z,48.55
2019-04-06T14:01:49.453Z,48.62
2019-04-06T14:04:28.288Z,48.85
2019-04-06T14:07:01.057Z,49.17
2019-04-06T14:09:36.860Z,49.13
2019-04-06T14:12:06.954Z,49.43
2019-04-06T14:14:39.699Z,49.63
2019-04-06T14:17:12.113Z,49.54
2019-04-06T14:19:42.162Z,49.43
2019-04-06T14:22:14.815Z,49.40
2019-04-06T14:24:47.523Z,49.14
2019-04-06T14:27:29.288Z,49.09
2019-04-06T14:30:17.121Z,48.93
2019-04-06T14:32:49.698Z,48.98
2019-04-06T14:35:25.746Z,48.61
2019-04-06T14:37:55.716Z,48.72
2019-04-06T14:40:43.669Z,49.04
2019-04-06T14:43:29.067Z,48.81
2019-04-06T14:46:16.935Z,48.69
2019-04-06T14:49:12.128Z,48.68
2019-04-06T14:51:41.691Z,48.54
2019-04-06T14:54:11.730Z,48.87
2019-04-06T14:56:53.801Z,49.37
2019-04-06T14:59:23.949Z,49.47
2019-04-06T15:02:00.130Z,49.59
2019-04-06T15:04:46.121Z,49.52
2019-04-06T15:07:28.448Z,49.52
2019-04-06T15:10:07.224Z,49.71
2019-04-06T15:12:40.226Z,49.54
2019-04-06T15:15:18.681Z,49.88
2019-04-06T15:17:48.656Z,49.90
2019-04-06T15:20:24.436Z,49.99
2019-04-06T15:23:10.849Z,49.70
2019-04-06T15:25:46.720Z,49.48
2019-04-06T15:28:22.311Z,49.31
2019-04-06T15:31:09.016Z,49.35
2019-04-06T15:33:39.122Z,49.30
2019-04-06T15:36:09.164Z,49.23
2019-04-06T15:38:42.274Z,49.32
2019-04-06T15:41:28.322Z,49.44
2019-04-06T15:44:14.363Z,49.53
2019-04-06T15:46:50.531Z,49.54
2019-04-06T15:49:36.963Z,49.51
2019-04-06T15:52:25.068Z,49.46
2019-04-06T15:55:05.179Z,49.46
2019-04-06T15:57:35.195Z,49.48
2019-04-06T16:00:13.475Z,49.53
2019-04-06T16:02:43.494Z,49.43
2019-04-06T16:05:16.681Z,49.35
2019-04-06T16:07:55.525Z,49.34
2019-04-06T16:10:28.306Z,49.36
2019-04-06T16:12:58.305Z,49.53
2019-04-06T16:15:30.918Z,49.47
2019-04-06T16:18:18.964Z,49.85
2019-04-06T16:20:49.004Z,49.96
2019-04-06T16:23:25.320Z,49.83
2019-04-06T16:25:58.420Z,49.86
2019-04-06T16:28:28.425Z,49.90
2019-04-06T16:31:06.868Z,49.97
2019-04-06T16:33:54.224Z,50.06
2019-04-06T16:36:29.745Z,49.97
2019-04-06T16:39:02.719Z,50.05
2019-04-06T16:41:35.739Z,50.03
2019-04-06T16:44:05.984Z,50.07
2019-04-06T16:46:36.074Z,50.14
2019-04-06T16:49:22.084Z,50.11
2019-04-06T16:51:52.307Z,50.13
2019-04-06T16:54:38.447Z,50.16
2019-04-06T16:57:17.463Z,50.26
2019-04-06T17:00:07.253Z,50.41
2019-04-06T17:02:47.211Z,50.49
2019-04-06T17:05:20.230Z,51.75
2019-04-06T17:07:50.301Z,51.06
2019-04-06T17:10:20.338Z,51.09
2019-04-06T17:12:53.665Z,50.83
2019-04-06T17:15:26.918Z,50.97
2019-04-06T17:18:03.546Z,50.81
2019-04-06T17:20:39.866Z,50.85
2019-04-06T17:23:16.068Z,50.84
2019-04-06T17:26:02.835Z,50.86
2019-04-06T17:28:49.113Z,50.88
2019-04-06T17:31:24.844Z,50.87
2019-04-06T17:33:54.900Z,50.89
2019-04-06T17:36:37.402Z,50.94
2019-04-06T17:39:08.805Z,50.95
2019-04-06T17:41:51.147Z,50.91
2019-04-06T17:44:37.138Z,50.91
2019-04-06T17:47:19.118Z,50.92
2019-04-06T17:49:52.137Z,51.10
2019-04-06T17:52:28.414Z,51.47
2019-04-06T17:55:04.844Z,52.06
2019-04-06T17:57:34.949Z,52.43
2019-04-06T18:00:22.691Z,52.25
2019-04-06T18:03:04.773Z,52.37
2019-04-06T18:05:50.092Z,52.50
2019-04-06T18:08:37.496Z,52.57
2019-04-06T18:11:13.620Z,52.78
2019-04-06T18:13:43.651Z,52.98
2019-04-06T18:16:12.041Z,53.21
2019-04-06T18:18:40.719Z,53.29
2019-04-06T18:21:09.112Z,53.41
2019-04-06T18:23:37.503Z,53.33
2019-04-06T18:26:05.920Z,53.51
2019-04-06T18:28:34.331Z,53.60
2019-04-06T18:31:06.816Z,53.45
2019-04-06T18:33:35.187Z,52.84
2019-04-06T18:36:03.557Z,52.56
2019-04-06T18:38:36.584Z,52.70
2019-04-06T18:41:05.032Z,52.83
2019-04-06T18:43:34.560Z,52.97
2019-04-06T18:46:03.420Z,53.11
2019-04-06T18:48:31.848Z,53.13
2019-04-06T18:51:00.231Z,53.39
2019-04-06T18:53:28.631Z,53.39
2019-04-06T18:55:57.007Z,53.26
2019-04-06T18:58:25.384Z,53.30
2019-04-06T19:00:54.020Z,53.26
2019-04-06T19:03:22.454Z,53.30
2019-04-06T19:05:51.322Z,53.26
2019-04-06T19:08:19.863Z,53.30
2019-04-06T19:10:48.665Z,53.25
2019-04-06T19:13:17.143Z,53.29
2019-04-06T19:15:45.543Z,53.36
2019-04-06T19:18:14.435Z,53.33
2019-04-06T19:20:42.928Z,53.33
2019-04-06T19:23:11.963Z,53.34
2019-04-06T19:25:41.022Z,53.30
2019-04-06T19:28:09.435Z,53.35
2019-04-06T19:30:37.810Z,53.31
2019-04-06T19:33:06.700Z,53.32
2019-04-06T19:35:35.096Z,53.33
2019-04-06T19:38:03.482Z,53.28
2019-04-06T19:40:31.967Z,53.38
2019-04-06T19:43:00.272Z,53.31
2019-04-06T19:45:28.689Z,53.32
2019-04-06T19:47:57.071Z,53.33
2019-04-06T19:50:25.920Z,53.28
2019-04-06T19:52:54.332Z,53.31
2019-04-06T19:55:22.988Z,53.25
2019-04-06T19:57:51.834Z,53.19
2019-04-06T20:00:20.917Z,53.24
2019-04-06T20:02:49.647Z,53.25
2019-04-06T20:05:18.514Z,53.21
2019-04-06T20:07:47.021Z,53.16
2019-04-06T20:10:15.599Z,53.18
2019-04-06T20:12:43.985Z,53.32
2019-04-06T20:15:13.278Z,53.20
2019-04-06T20:17:41.695Z,53.22
2019-04-06T20:20:10.943Z,53.20
2019-04-06T20:22:39.405Z,53.15
2019-04-06T20:25:08.545Z,53.11
2019-04-06T20:27:36.950Z,53.14
2019-04-06T20:30:07.791Z,53.08
2019-04-06T20:32:36.142Z,53.04
2019-04-06T20:35:09.338Z,53.05
2019-04-06T20:37:37.814Z,53.04
2019-04-06T20:40:09.654Z,53.15
2019-04-06T20:42:38.531Z,53.18
2019-04-06T20:45:08.316Z,53.08
2019-04-06T20:47:37.033Z,53.17
2019-04-06T20:50:08.283Z,53.20
2019-04-06T20:52:37.041Z,53.26
2019-04-06T20:55:06.647Z,53.19
2019-04-06T20:57:35.053Z,53.29
2019-04-06T21:00:05.101Z,53.33
2019-04-06T21:02:34.020Z,53.28
2019-04-06T21:05:03.038Z,53.37
2019-04-06T21:07:31.580Z,53.37
2019-04-06T21:10:00.559Z,53.33
2019-04-06T21:12:29.178Z,53.29
2019-04-06T21:14:57.472Z,53.36
2019-04-06T21:17:26.474Z,53.26
2019-04-06T21:19:55.071Z,53.25
2019-04-06T21:22:23.908Z,53.32
2019-04-06T21:24:53.169Z,53.26
2019-04-06T21:27:22.718Z,53.28
2019-04-06T21:29:51.687Z,53.22
2019-04-06T21:32:20.652Z,53.10
2019-04-06T21:34:49.488Z,53.03
2019-04-06T21:37:17.912Z,52.97
2019-04-06T21:39:46.822Z,52.91
2019-04-06T21:42:15.293Z,52.91
2019-04-06T21:44:43.696Z,52.87
2019-04-06T21:47:12.200Z,52.88
2019-04-06T21:49:40.553Z,52.82
2019-04-06T21:52:08.967Z,52.80
2019-04-06T21:54:37.385Z,52.80
2019-04-06T21:57:06.179Z,52.79
2019-04-06T21:59:34.524Z,52.76
2019-04-06T22:02:03.372Z,52.78
2019-04-06T22:04:31.890Z,52.78
2019-04-06T22:07:00.930Z,52.85
2019-04-06T22:09:29.738Z,52.76
2019-04-06T22:11:58.470Z,52.74
2019-04-06T22:14:26.873Z,52.80
2019-04-06T22:16:55.328Z,52.80
2019-04-06T22:19:23.721Z,52.80
2019-04-06T22:21:53.057Z,52.70
2019-04-06T22:24:21.585Z,52.81
2019-04-06T22:26:50.630Z,52.93
2019-04-06T22:29:19.454Z,53.11
2019-04-06T22:31:48.024Z,52.98
2019-04-06T22:34:16.400Z,52.88
2019-04-06T22:36:45.143Z,52.92
2019-04-06T22:39:13.853Z,52.85
2019-04-06T22:41:43.344Z,52.86
2019-04-06T22:44:11.726Z,52.81
2019-04-06T22:46:40.728Z,52.81
2019-04-06T22:49:09.203Z,52.88
2019-04-06T22:51:37.968Z,52.81
2019-04-06T22:54:06.805Z,52.88
2019-04-06T22:56:35.228Z,52.95
2019-04-06T22:59:03.739Z,52.96
2019-04-06T23:01:33.762Z,52.91
2019-04-06T23:04:04.040Z,52.94
2019-04-06T23:06:46.987Z,53.01
2019-04-06T23:09:15.538Z,53.00
2019-04-06T23:11:43.942Z,52.88
2019-04-06T23:14:12.550Z,53.01
2019-04-06T23:16:40.903Z,52.96
2019-04-06T23:19:09.690Z,52.95
2019-04-06T23:21:38.474Z,52.90
2019-04-06T23:24:07.017Z,52.87
2019-04-06T23:26:36.090Z,52.89
2019-04-06T23:29:05.422Z,52.82
2019-04-06T23:31:35.165Z,52.79
2019-04-06T23:34:03.531Z,52.78
2019-04-06T23:36:33.980Z,52.67
2019-04-06T23:39:02.450Z,52.78
2019-04-06T23:41:33.857Z,52.74
2019-04-06T23:44:05.434Z,52.69
2019-04-06T23:46:33.832Z,52.83
2019-04-06T23:49:02.694Z,52.79
2019-04-06T23:51:31.436Z,52.72
2019-04-06T23:53:59.776Z,52.72
2019-04-06T23:56:28.244Z,52.75
2019-04-06T23:58:56.561Z,52.71
